sensor_id;sensor_type;location;lat;lon;timestamp;P1;durP1;ratioP1;P2;durP2;ratioP2
12762;SDS011;6445;52.490;13.378;2023-06-26T00:00:11;15.68;;;11.60;;
12762;SDS011;6445;52.490;13.378;2023-06-26T00:02:36;15.50;;;12.35;;
12762;SDS011;6445;52.490;13.378;2023-06-26T00:05:02;13.00;;;11.65;;
12762;SDS011;6445;52.490;13.378;2023-06-26T00:07:27;13.52;;;11.98;;
12762;SDS011;6445;52.490;13.378;2023-06-26T00:09:54;14.07;;;11.75;;
12762;SDS011;6445;52.490;13.378;2023-06-26T00:12:19;13.40;;;12.00;;
12762;SDS011;6445;52.490;13.378;2023-06-26T00:14:44;13.13;;;11.57;;
12762;SDS011;6445;52.490;13.378;2023-06-26T00:17:11;15.90;;;11.85;;
12762;SDS011;6445;52.490;13.378;2023-06-26T00:19:36;15.30;;;12.55;;
12762;SDS011;6445;52.490;13.378;2023-06-26T00:22:01;14.52;;;13.02;;
12762;SDS011;6445;52.490;13.378;2023-06-26T00:24:27;12.77;;;11.48;;
12762;SDS011;6445;52.490;13.378;2023-06-26T00:26:52;14.60;;;12.15;;
12762;SDS011;6445;52.490;13.378;2023-06-26T00:29:17;16.45;;;12.98;;
12762;SDS011;6445;52.490;13.378;2023-06-26T00:31:43;13.68;;;12.23;;
12762;SDS011;6445;52.490;13.378;2023-06-26T00:34:08;13.52;;;11.95;;
12762;SDS011;6445;52.490;13.378;2023-06-26T00:36:33;12.65;;;11.32;;
12762;SDS011;6445;52.490;13.378;2023-06-26T00:38:59;13.20;;;11.82;;
12762;SDS011;6445;52.490;13.378;2023-06-26T00:41:24;13.57;;;12.02;;
12762;SDS011;6445;52.490;13.378;2023-06-26T00:43:49;14.65;;;12.20;;
12762;SDS011;6445;52.490;13.378;2023-06-26T00:46:15;15.65;;;12.13;;
12762;SDS011;6445;52.490;13.378;2023-06-26T00:48:41;13.20;;;11.77;;
12762;SDS011;6445;52.490;13.378;2023-06-26T00:51:08;12.90;;;11.52;;
12762;SDS011;6445;52.490;13.378;2023-06-26T00:53:33;13.48;;;12.07;;
12762;SDS011;6445;52.490;13.378;2023-06-26T00:55:59;14.10;;;11.40;;
12762;SDS011;6445;52.490;13.378;2023-06-26T00:58:25;13.80;;;11.70;;
12762;SDS011;6445;52.490;13.378;2023-06-26T01:00:50;13.30;;;11.88;;
12762;SDS011;6445;52.490;13.378;2023-06-26T01:03:16;13.02;;;11.50;;
12762;SDS011;6445;52.490;13.378;2023-06-26T01:05:42;13.27;;;11.10;;
12762;SDS011;6445;52.490;13.378;2023-06-26T01:08:10;11.95;;;10.75;;
12762;SDS011;6445;52.490;13.378;2023-06-26T01:10:37;12.05;;;10.82;;
12762;SDS011;6445;52.490;13.378;2023-06-26T01:13:02;12.75;;;11.27;;
12762;SDS011;6445;52.490;13.378;2023-06-26T01:15:28;13.68;;;11.80;;
12762;SDS011;6445;52.490;13.378;2023-06-26T01:17:53;12.80;;;10.68;;
12762;SDS011;6445;52.490;13.378;2023-06-26T01:20:20;14.68;;;11.48;;
12762;SDS011;6445;52.490;13.378;2023-06-26T01:22:56;13.52;;;11.55;;
12762;SDS011;6445;52.490;13.378;2023-06-26T01:28:32;12.75;;;11.32;;
12762;SDS011;6445;52.490;13.378;2023-06-26T01:30:59;12.95;;;11.55;;
12762;SDS011;6445;52.490;13.378;2023-06-26T01:33:25;13.85;;;11.25;;
12762;SDS011;6445;52.490;13.378;2023-06-26T01:35:52;13.85;;;11.45;;
12762;SDS011;6445;52.490;13.378;2023-06-26T01:38:18;13.32;;;11.77;;
12762;SDS011;6445;52.490;13.378;2023-06-26T01:40:45;13.95;;;11.75;;
12762;SDS011;6445;52.490;13.378;2023-06-26T01:43:15;13.68;;;11.23;;
12762;SDS011;6445;52.490;13.378;2023-06-26T01:45:48;13.00;;;11.38;;
12762;SDS011;6445;52.490;13.378;2023-06-26T01:48:14;13.82;;;11.52;;
12762;SDS011;6445;52.490;13.378;2023-06-26T01:50:45;14.73;;;12.00;;
12762;SDS011;6445;52.490;13.378;2023-06-26T01:53:12;12.90;;;11.48;;
12762;SDS011;6445;52.490;13.378;2023-06-26T01:58:11;15.25;;;12.55;;
12762;SDS011;6445;52.490;13.378;2023-06-26T02:00:39;15.05;;;12.63;;
12762;SDS011;6445;52.490;13.378;2023-06-26T02:03:05;14.85;;;12.48;;
12762;SDS011;6445;52.490;13.378;2023-06-26T02:05:31;13.80;;;11.60;;
12762;SDS011;6445;52.490;13.378;2023-06-26T02:07:57;13.77;;;12.30;;
12762;SDS011;6445;52.490;13.378;2023-06-26T02:10:22;14.43;;;12.40;;
12762;SDS011;6445;52.490;13.378;2023-06-26T02:12:47;14.40;;;12.80;;
12762;SDS011;6445;52.490;13.378;2023-06-26T02:15:12;14.98;;;13.48;;
12762;SDS011;6445;52.490;13.378;2023-06-26T02:17:38;14.15;;;12.05;;
12762;SDS011;6445;52.490;13.378;2023-06-26T02:20:03;15.88;;;13.82;;
12762;SDS011;6445;52.490;13.378;2023-06-26T02:22:29;14.98;;;12.75;;
12762;SDS011;6445;52.490;13.378;2023-06-26T02:24:54;15.05;;;13.55;;
12762;SDS011;6445;52.490;13.378;2023-06-26T02:27:19;15.23;;;13.55;;
12762;SDS011;6445;52.490;13.378;2023-06-26T02:29:45;14.23;;;12.73;;
12762;SDS011;6445;52.490;13.378;2023-06-26T02:32:10;18.42;;;16.45;;
12762;SDS011;6445;52.490;13.378;2023-06-26T02:34:35;14.57;;;13.07;;
12762;SDS011;6445;52.490;13.378;2023-06-26T02:37:01;15.88;;;14.18;;
12762;SDS011;6445;52.490;13.378;2023-06-26T02:39:26;14.57;;;13.07;;
12762;SDS011;6445;52.490;13.378;2023-06-26T02:41:52;16.38;;;13.75;;
12762;SDS011;6445;52.490;13.378;2023-06-26T02:44:17;15.02;;;13.48;;
12762;SDS011;6445;52.490;13.378;2023-06-26T02:46:43;14.85;;;13.18;;
12762;SDS011;6445;52.490;13.378;2023-06-26T02:49:08;15.30;;;13.60;;
12762;SDS011;6445;52.490;13.378;2023-06-26T02:51:33;15.70;;;13.18;;
12762;SDS011;6445;52.490;13.378;2023-06-26T02:53:59;19.80;;;13.15;;
12762;SDS011;6445;52.490;13.378;2023-06-26T02:56:25;19.30;;;14.38;;
12762;SDS011;6445;52.490;13.378;2023-06-26T02:58:54;19.00;;;14.23;;
12762;SDS011;6445;52.490;13.378;2023-06-26T03:01:19;16.80;;;15.00;;
12762;SDS011;6445;52.490;13.378;2023-06-26T03:03:45;20.10;;;17.98;;
12762;SDS011;6445;52.490;13.378;2023-06-26T03:06:12;16.13;;;14.52;;
12762;SDS011;6445;52.490;13.378;2023-06-26T03:08:37;16.10;;;14.02;;
12762;SDS011;6445;52.490;13.378;2023-06-26T03:11:06;15.90;;;14.25;;
12762;SDS011;6445;52.490;13.378;2023-06-26T03:13:32;18.75;;;14.30;;
12762;SDS011;6445;52.490;13.378;2023-06-26T03:15:59;17.30;;;14.32;;
12762;SDS011;6445;52.490;13.378;2023-06-26T03:18:24;16.67;;;14.13;;
12762;SDS011;6445;52.490;13.378;2023-06-26T03:20:49;19.48;;;15.38;;
12762;SDS011;6445;52.490;13.378;2023-06-26T03:23:14;17.92;;;15.70;;
12762;SDS011;6445;52.490;13.378;2023-06-26T03:25:40;17.77;;;15.20;;
12762;SDS011;6445;52.490;13.378;2023-06-26T03:28:05;15.70;;;14.07;;
12762;SDS011;6445;52.490;13.378;2023-06-26T03:30:30;18.00;;;14.98;;
12762;SDS011;6445;52.490;13.378;2023-06-26T03:32:56;16.90;;;15.13;;
12762;SDS011;6445;52.490;13.378;2023-06-26T03:35:21;18.83;;;15.32;;
12762;SDS011;6445;52.490;13.378;2023-06-26T03:37:46;16.73;;;15.02;;
12762;SDS011;6445;52.490;13.378;2023-06-26T03:40:11;17.90;;;15.23;;
12762;SDS011;6445;52.490;13.378;2023-06-26T03:42:37;16.02;;;14.38;;
12762;SDS011;6445;52.490;13.378;2023-06-26T03:45:02;16.13;;;14.35;;
12762;SDS011;6445;52.490;13.378;2023-06-26T03:47:27;16.10;;;14.23;;
12762;SDS011;6445;52.490;13.378;2023-06-26T03:49:52;16.02;;;14.00;;
12762;SDS011;6445;52.490;13.378;2023-06-26T03:52:18;16.52;;;14.93;;
12762;SDS011;6445;52.490;13.378;2023-06-26T03:54:43;17.15;;;15.23;;
12762;SDS011;6445;52.490;13.378;2023-06-26T03:57:08;20.58;;;15.10;;
12762;SDS011;6445;52.490;13.378;2023-06-26T03:59:33;16.80;;;14.77;;
12762;SDS011;6445;52.490;13.378;2023-06-26T04:01:59;18.25;;;14.75;;
12762;SDS011;6445;52.490;13.378;2023-06-26T04:04:24;18.38;;;15.18;;
12762;SDS011;6445;52.490;13.378;2023-06-26T04:06:49;17.65;;;15.25;;
12762;SDS011;6445;52.490;13.378;2023-06-26T04:09:15;19.23;;;16.20;;
12762;SDS011;6445;52.490;13.378;2023-06-26T04:11:40;18.60;;;16.65;;
12762;SDS011;6445;52.490;13.378;2023-06-26T04:14:06;16.63;;;14.73;;
12762;SDS011;6445;52.490;13.378;2023-06-26T04:16:31;18.52;;;15.60;;
12762;SDS011;6445;52.490;13.378;2023-06-26T04:18:56;17.13;;;15.35;;
12762;SDS011;6445;52.490;13.378;2023-06-26T04:21:21;17.40;;;15.70;;
12762;SDS011;6445;52.490;13.378;2023-06-26T04:23:49;19.23;;;15.55;;
12762;SDS011;6445;52.490;13.378;2023-06-26T04:26:15;21.92;;;15.90;;
12762;SDS011;6445;52.490;13.378;2023-06-26T04:28:40;16.05;;;14.45;;
12762;SDS011;6445;52.490;13.378;2023-06-26T04:31:06;17.30;;;14.32;;
12762;SDS011;6445;52.490;13.378;2023-06-26T04:33:31;16.90;;;14.43;;
12762;SDS011;6445;52.490;13.378;2023-06-26T04:35:57;18.35;;;14.27;;
12762;SDS011;6445;52.490;13.378;2023-06-26T04:38:22;16.55;;;14.85;;
12762;SDS011;6445;52.490;13.378;2023-06-26T04:40:48;15.57;;;14.02;;
12762;SDS011;6445;52.490;13.378;2023-06-26T04:43:14;18.77;;;14.80;;
12762;SDS011;6445;52.490;13.378;2023-06-26T04:45:39;16.45;;;14.00;;
12762;SDS011;6445;52.490;13.378;2023-06-26T04:48:04;16.75;;;15.05;;
12762;SDS011;6445;52.490;13.378;2023-06-26T04:50:31;16.50;;;14.73;;
12762;SDS011;6445;52.490;13.378;2023-06-26T04:52:56;16.17;;;14.38;;
12762;SDS011;6445;52.490;13.378;2023-06-26T04:55:23;16.65;;;15.05;;
12762;SDS011;6445;52.490;13.378;2023-06-26T04:57:49;16.33;;;14.30;;
12762;SDS011;6445;52.490;13.378;2023-06-26T05:00:14;16.02;;;13.93;;
12762;SDS011;6445;52.490;13.378;2023-06-26T05:02:40;16.77;;;14.88;;
12762;SDS011;6445;52.490;13.378;2023-06-26T05:05:05;15.57;;;13.82;;
12762;SDS011;6445;52.490;13.378;2023-06-26T05:07:31;17.48;;;14.23;;
12762;SDS011;6445;52.490;13.378;2023-06-26T05:09:56;15.18;;;13.63;;
12762;SDS011;6445;52.490;13.378;2023-06-26T05:12:21;17.80;;;14.43;;
12762;SDS011;6445;52.490;13.378;2023-06-26T05:14:47;15.32;;;13.82;;
12762;SDS011;6445;52.490;13.378;2023-06-26T05:17:13;15.48;;;13.80;;
12762;SDS011;6445;52.490;13.378;2023-06-26T05:19:39;16.50;;;13.75;;
12762;SDS011;6445;52.490;13.378;2023-06-26T05:22:04;16.27;;;13.07;;
12762;SDS011;6445;52.490;13.378;2023-06-26T05:24:32;14.90;;;13.50;;
12762;SDS011;6445;52.490;13.378;2023-06-26T05:27:00;13.93;;;12.57;;
12762;SDS011;6445;52.490;13.378;2023-06-26T05:29:25;15.45;;;13.63;;
12762;SDS011;6445;52.490;13.378;2023-06-26T05:31:51;14.30;;;12.90;;
12762;SDS011;6445;52.490;13.378;2023-06-26T05:34:18;15.18;;;13.13;;
12762;SDS011;6445;52.490;13.378;2023-06-26T05:36:45;14.02;;;12.63;;
12762;SDS011;6445;52.490;13.378;2023-06-26T05:39:13;15.18;;;11.88;;
12762;SDS011;6445;52.490;13.378;2023-06-26T05:41:39;18.02;;;13.25;;
12762;SDS011;6445;52.490;13.378;2023-06-26T05:44:04;14.18;;;12.68;;
12762;SDS011;6445;52.490;13.378;2023-06-26T05:46:29;15.68;;;12.82;;
12762;SDS011;6445;52.490;13.378;2023-06-26T05:48:55;16.25;;;12.45;;
12762;SDS011;6445;52.490;13.378;2023-06-26T05:51:20;15.10;;;12.40;;
12762;SDS011;6445;52.490;13.378;2023-06-26T05:53:45;13.45;;;11.93;;
12762;SDS011;6445;52.490;13.378;2023-06-26T05:56:11;13.02;;;11.73;;
12762;SDS011;6445;52.490;13.378;2023-06-26T05:58:37;12.63;;;11.15;;
12762;SDS011;6445;52.490;13.378;2023-06-26T06:01:02;11.93;;;10.57;;
12762;SDS011;6445;52.490;13.378;2023-06-26T06:03:28;11.88;;;10.68;;
12762;SDS011;6445;52.490;13.378;2023-06-26T06:05:53;11.05;;;10.00;;
12762;SDS011;6445;52.490;13.378;2023-06-26T06:08:18;11.38;;;10.23;;
12762;SDS011;6445;52.490;13.378;2023-06-26T06:10:44;11.48;;;9.70;;
12762;SDS011;6445;52.490;13.378;2023-06-26T06:13:09;12.50;;;8.32;;
12762;SDS011;6445;52.490;13.378;2023-06-26T06:15:34;11.65;;;8.52;;
12762;SDS011;6445;52.490;13.378;2023-06-26T06:17:59;11.25;;;9.10;;
12762;SDS011;6445;52.490;13.378;2023-06-26T06:20:25;8.73;;;7.82;;
12762;SDS011;6445;52.490;13.378;2023-06-26T06:22:50;10.45;;;8.30;;
12762;SDS011;6445;52.490;13.378;2023-06-26T06:25:15;11.05;;;8.07;;
12762;SDS011;6445;52.490;13.378;2023-06-26T06:27:40;9.90;;;7.30;;
12762;SDS011;6445;52.490;13.378;2023-06-26T06:30:06;7.75;;;7.03;;
12762;SDS011;6445;52.490;13.378;2023-06-26T06:32:32;9.82;;;8.60;;
12762;SDS011;6445;52.490;13.378;2023-06-26T06:34:57;7.05;;;6.28;;
12762;SDS011;6445;52.490;13.378;2023-06-26T06:37:22;6.45;;;5.85;;
12762;SDS011;6445;52.490;13.378;2023-06-26T06:39:47;6.57;;;5.97;;
12762;SDS011;6445;52.490;13.378;2023-06-26T06:42:12;6.88;;;6.18;;
12762;SDS011;6445;52.490;13.378;2023-06-26T06:44:38;7.07;;;6.38;;
12762;SDS011;6445;52.490;13.378;2023-06-26T06:47:03;7.35;;;6.60;;
12762;SDS011;6445;52.490;13.378;2023-06-26T06:49:28;7.05;;;6.45;;
12762;SDS011;6445;52.490;13.378;2023-06-26T06:51:54;6.95;;;6.28;;
12762;SDS011;6445;52.490;13.378;2023-06-26T06:54:19;7.88;;;6.90;;
12762;SDS011;6445;52.490;13.378;2023-06-26T06:56:44;7.22;;;6.05;;
12762;SDS011;6445;52.490;13.378;2023-06-26T06:59:09;7.13;;;6.43;;
12762;SDS011;6445;52.490;13.378;2023-06-26T07:01:35;6.95;;;6.25;;
12762;SDS011;6445;52.490;13.378;2023-06-26T07:04:00;9.50;;;6.60;;
12762;SDS011;6445;52.490;13.378;2023-06-26T07:06:25;7.88;;;6.70;;
12762;SDS011;6445;52.490;13.378;2023-06-26T07:08:50;9.68;;;6.47;;
12762;SDS011;6445;52.490;13.378;2023-06-26T07:11:16;9.32;;;6.35;;
12762;SDS011;6445;52.490;13.378;2023-06-26T07:13:41;6.97;;;6.37;;
12762;SDS011;6445;52.490;13.378;2023-06-26T07:16:07;10.15;;;9.20;;
12762;SDS011;6445;52.490;13.378;2023-06-26T07:18:36;11.00;;;9.45;;
12762;SDS011;6445;52.490;13.378;2023-06-26T07:21:02;10.80;;;9.52;;
12762;SDS011;6445;52.490;13.378;2023-06-26T07:23:27;9.33;;;7.30;;
12762;SDS011;6445;52.490;13.378;2023-06-26T07:25:53;12.98;;;7.25;;
12762;SDS011;6445;52.490;13.378;2023-06-26T07:28:18;9.73;;;7.10;;
12762;SDS011;6445;52.490;13.378;2023-06-26T07:30:43;9.52;;;6.50;;
12762;SDS011;6445;52.490;13.378;2023-06-26T07:33:08;7.00;;;6.30;;
12762;SDS011;6445;52.490;13.378;2023-06-26T07:35:34;8.52;;;6.85;;
12762;SDS011;6445;52.490;13.378;2023-06-26T07:37:59;8.40;;;6.77;;
12762;SDS011;6445;52.490;13.378;2023-06-26T07:40:25;8.90;;;6.73;;
12762;SDS011;6445;52.490;13.378;2023-06-26T07:42:50;7.53;;;6.13;;
12762;SDS011;6445;52.490;13.378;2023-06-26T07:45:16;12.98;;;6.93;;
12762;SDS011;6445;52.490;13.378;2023-06-26T07:47:41;7.10;;;6.40;;
12762;SDS011;6445;52.490;13.378;2023-06-26T07:50:06;7.25;;;6.57;;
12762;SDS011;6445;52.490;13.378;2023-06-26T07:52:32;8.90;;;6.97;;
12762;SDS011;6445;52.490;13.378;2023-06-26T07:54:58;6.97;;;6.28;;
12762;SDS011;6445;52.490;13.378;2023-06-26T07:57:23;8.32;;;5.57;;
12762;SDS011;6445;52.490;13.378;2023-06-26T07:59:49;6.32;;;5.72;;
12762;SDS011;6445;52.490;13.378;2023-06-26T08:02:14;6.30;;;5.70;;
12762;SDS011;6445;52.490;13.378;2023-06-26T08:04:40;20.20;;;18.17;;
12762;SDS011;6445;52.490;13.378;2023-06-26T08:07:05;8.05;;;7.32;;
12762;SDS011;6445;52.490;13.378;2023-06-26T08:09:30;6.18;;;5.68;;
12762;SDS011;6445;52.490;13.378;2023-06-26T08:11:56;5.60;;;5.10;;
12762;SDS011;6445;52.490;13.378;2023-06-26T08:14:21;5.50;;;5.00;;
12762;SDS011;6445;52.490;13.378;2023-06-26T08:16:48;5.20;;;4.70;;
12762;SDS011;6445;52.490;13.378;2023-06-26T08:19:14;5.53;;;5.03;;
12762;SDS011;6445;52.490;13.378;2023-06-26T08:21:40;5.93;;;5.03;;
12762;SDS011;6445;52.490;13.378;2023-06-26T08:24:06;6.15;;;4.85;;
12762;SDS011;6445;52.490;13.378;2023-06-26T08:26:31;6.65;;;4.78;;
12762;SDS011;6445;52.490;13.378;2023-06-26T08:28:57;5.33;;;4.83;;
12762;SDS011;6445;52.490;13.378;2023-06-26T08:31:22;5.23;;;4.73;;
12762;SDS011;6445;52.490;13.378;2023-06-26T08:33:47;7.05;;;5.63;;
12762;SDS011;6445;52.490;13.378;2023-06-26T08:36:12;5.13;;;4.63;;
12762;SDS011;6445;52.490;13.378;2023-06-26T08:38:38;6.90;;;4.55;;
12762;SDS011;6445;52.490;13.378;2023-06-26T08:41:05;5.82;;;5.22;;
12762;SDS011;6445;52.490;13.378;2023-06-26T08:43:31;6.20;;;4.90;;
12762;SDS011;6445;52.490;13.378;2023-06-26T08:45:56;5.50;;;4.90;;
12762;SDS011;6445;52.490;13.378;2023-06-26T08:48:22;5.40;;;4.90;;
12762;SDS011;6445;52.490;13.378;2023-06-26T08:50:48;6.30;;;5.00;;
12762;SDS011;6445;52.490;13.378;2023-06-26T08:53:17;5.32;;;4.82;;
12762;SDS011;6445;52.490;13.378;2023-06-26T08:55:54;6.40;;;5.45;;
12762;SDS011;6445;52.490;13.378;2023-06-26T08:58:22;6.20;;;5.60;;
12762;SDS011;6445;52.490;13.378;2023-06-26T09:00:47;5.90;;;5.30;;
12762;SDS011;6445;52.490;13.378;2023-06-26T09:03:14;6.32;;;5.07;;
12762;SDS011;6445;52.490;13.378;2023-06-26T09:05:39;5.50;;;4.90;;
12762;SDS011;6445;52.490;13.378;2023-06-26T09:08:05;5.35;;;4.85;;
12762;SDS011;6445;52.490;13.378;2023-06-26T09:10:31;6.35;;;4.97;;
12762;SDS011;6445;52.490;13.378;2023-06-26T09:12:57;5.20;;;4.70;;
12762;SDS011;6445;52.490;13.378;2023-06-26T09:15:23;5.93;;;5.32;;
12762;SDS011;6445;52.490;13.378;2023-06-26T09:17:48;5.63;;;4.95;;
12762;SDS011;6445;52.490;13.378;2023-06-26T09:20:14;6.72;;;5.68;;
12762;SDS011;6445;52.490;13.378;2023-06-26T09:22:40;9.25;;;5.00;;
12762;SDS011;6445;52.490;13.378;2023-06-26T09:25:07;5.80;;;5.30;;
12762;SDS011;6445;52.490;13.378;2023-06-26T09:27:34;5.60;;;5.10;;
12762;SDS011;6445;52.490;13.378;2023-06-26T09:30:01;6.20;;;5.47;;
12762;SDS011;6445;52.490;13.378;2023-06-26T09:32:27;5.80;;;5.22;;
12762;SDS011;6445;52.490;13.378;2023-06-26T09:34:53;5.40;;;4.90;;
12762;SDS011;6445;52.490;13.378;2023-06-26T09:37:20;6.45;;;5.28;;
12762;SDS011;6445;52.490;13.378;2023-06-26T09:39:46;4.82;;;4.43;;
12762;SDS011;6445;52.490;13.378;2023-06-26T09:42:13;4.50;;;4.10;;
12762;SDS011;6445;52.490;13.378;2023-06-26T09:44:48;7.35;;;4.35;;
12762;SDS011;6445;52.490;13.378;2023-06-26T09:47:18;4.60;;;4.20;;
12762;SDS011;6445;52.490;13.378;2023-06-26T09:49:44;32.50;;;29.30;;
12762;SDS011;6445;52.490;13.378;2023-06-26T09:52:10;9.68;;;8.77;;
12762;SDS011;6445;52.490;13.378;2023-06-26T09:54:40;4.50;;;4.10;;
12762;SDS011;6445;52.490;13.378;2023-06-26T09:57:09;4.50;;;4.10;;
12762;SDS011;6445;52.490;13.378;2023-06-26T09:59:35;4.60;;;4.20;;
12762;SDS011;6445;52.490;13.378;2023-06-26T10:02:01;4.68;;;4.10;;
12762;SDS011;6445;52.490;13.378;2023-06-26T10:04:26;4.90;;;4.17;;
12762;SDS011;6445;52.490;13.378;2023-06-26T10:06:51;6.15;;;4.30;;
12762;SDS011;6445;52.490;13.378;2023-06-26T10:09:21;4.70;;;4.30;;
12762;SDS011;6445;52.490;13.378;2023-06-26T10:14:20;4.82;;;4.30;;
12762;SDS011;6445;52.490;13.378;2023-06-26T10:16:47;5.28;;;4.35;;
12762;SDS011;6445;52.490;13.378;2023-06-26T10:19:14;4.32;;;3.92;;
12762;SDS011;6445;52.490;13.378;2023-06-26T10:21:44;5.53;;;4.40;;
12762;SDS011;6445;52.490;13.378;2023-06-26T10:24:09;6.03;;;4.00;;
12762;SDS011;6445;52.490;13.378;2023-06-26T10:26:38;4.38;;;3.95;;
12762;SDS011;6445;52.490;13.378;2023-06-26T10:29:09;6.97;;;4.35;;
12762;SDS011;6445;52.490;13.378;2023-06-26T10:31:36;4.78;;;4.20;;
12762;SDS011;6445;52.490;13.378;2023-06-26T10:34:03;5.32;;;4.13;;
12762;SDS011;6445;52.490;13.378;2023-06-26T10:36:30;4.68;;;4.20;;
12762;SDS011;6445;52.490;13.378;2023-06-26T10:38:56;5.93;;;4.50;;
12762;SDS011;6445;52.490;13.378;2023-06-26T10:41:23;4.45;;;4.05;;
12762;SDS011;6445;52.490;13.378;2023-06-26T10:43:52;7.13;;;4.07;;
12762;SDS011;6445;52.490;13.378;2023-06-26T10:46:51;5.47;;;4.22;;
12762;SDS011;6445;52.490;13.378;2023-06-26T10:49:17;4.43;;;4.03;;
12762;SDS011;6445;52.490;13.378;2023-06-26T10:51:46;7.05;;;4.55;;
12762;SDS011;6445;52.490;13.378;2023-06-26T10:54:14;5.07;;;4.25;;
12762;SDS011;6445;52.490;13.378;2023-06-26T10:56:41;5.13;;;4.65;;
12762;SDS011;6445;52.490;13.378;2023-06-26T10:59:17;5.50;;;4.50;;
12762;SDS011;6445;52.490;13.378;2023-06-26T11:01:45;5.15;;;4.65;;
12762;SDS011;6445;52.490;13.378;2023-06-26T11:04:12;5.10;;;3.85;;
12762;SDS011;6445;52.490;13.378;2023-06-26T11:06:40;5.68;;;4.38;;
12762;SDS011;6445;52.490;13.378;2023-06-26T11:09:07;4.95;;;4.22;;
12762;SDS011;6445;52.490;13.378;2023-06-26T11:14:20;4.90;;;4.50;;
12762;SDS011;6445;52.490;13.378;2023-06-26T11:16:49;5.22;;;4.72;;
12762;SDS011;6445;52.490;13.378;2023-06-26T11:19:16;4.90;;;4.40;;
12762;SDS011;6445;52.490;13.378;2023-06-26T11:21:43;6.13;;;4.45;;
12762;SDS011;6445;52.490;13.378;2023-06-26T11:24:08;7.80;;;4.70;;
12762;SDS011;6445;52.490;13.378;2023-06-26T11:26:38;4.97;;;4.57;;
12762;SDS011;6445;52.490;13.378;2023-06-26T11:29:04;5.20;;;4.55;;
12762;SDS011;6445;52.490;13.378;2023-06-26T11:31:30;5.82;;;5.32;;
12762;SDS011;6445;52.490;13.378;2023-06-26T11:34:00;5.43;;;4.22;;
12762;SDS011;6445;52.490;13.378;2023-06-26T11:36:28;5.82;;;4.53;;
12762;SDS011;6445;52.490;13.378;2023-06-26T11:39:01;5.70;;;4.70;;
12762;SDS011;6445;52.490;13.378;2023-06-26T11:41:36;8.32;;;7.47;;
12762;SDS011;6445;52.490;13.378;2023-06-26T11:44:06;5.13;;;4.63;;
12762;SDS011;6445;52.490;13.378;2023-06-26T11:46:36;6.10;;;5.47;;
12762;SDS011;6445;52.490;13.378;2023-06-26T11:49:03;4.90;;;4.50;;
12762;SDS011;6445;52.490;13.378;2023-06-26T11:51:29;6.40;;;4.90;;
12762;SDS011;6445;52.490;13.378;2023-06-26T11:53:54;7.50;;;4.72;;
12762;SDS011;6445;52.490;13.378;2023-06-26T11:56:20;5.72;;;4.72;;
12762;SDS011;6445;52.490;13.378;2023-06-26T11:58:56;4.80;;;4.40;;
12762;SDS011;6445;52.490;13.378;2023-06-26T12:01:25;5.47;;;4.43;;
12762;SDS011;6445;52.490;13.378;2023-06-26T12:03:51;4.95;;;4.55;;
12762;SDS011;6445;52.490;13.378;2023-06-26T12:06:18;5.78;;;4.93;;
12762;SDS011;6445;52.490;13.378;2023-06-26T12:08:43;4.95;;;4.55;;
12762;SDS011;6445;52.490;13.378;2023-06-26T12:11:09;5.25;;;4.63;;
12762;SDS011;6445;52.490;13.378;2023-06-26T12:13:35;5.35;;;4.85;;
12762;SDS011;6445;52.490;13.378;2023-06-26T12:16:00;5.15;;;4.65;;
12762;SDS011;6445;52.490;13.378;2023-06-26T12:18:25;5.95;;;4.85;;
12762;SDS011;6445;52.490;13.378;2023-06-26T12:20:57;5.50;;;5.00;;
12762;SDS011;6445;52.490;13.378;2023-06-26T12:23:23;5.55;;;5.03;;
12762;SDS011;6445;52.490;13.378;2023-06-26T12:25:48;5.63;;;5.03;;
12762;SDS011;6445;52.490;13.378;2023-06-26T12:28:17;11.30;;;10.30;;
12762;SDS011;6445;52.490;13.378;2023-06-26T12:30:46;6.68;;;5.65;;
12762;SDS011;6445;52.490;13.378;2023-06-26T12:33:13;5.53;;;5.03;;
12762;SDS011;6445;52.490;13.378;2023-06-26T12:35:39;5.78;;;5.28;;
12762;SDS011;6445;52.490;13.378;2023-06-26T12:38:07;6.40;;;5.80;;
12762;SDS011;6445;52.490;13.378;2023-06-26T12:40:35;6.22;;;5.63;;
12762;SDS011;6445;52.490;13.378;2023-06-26T12:43:11;6.22;;;5.63;;
12762;SDS011;6445;52.490;13.378;2023-06-26T12:45:40;6.28;;;5.68;;
12762;SDS011;6445;52.490;13.378;2023-06-26T12:48:12;6.50;;;5.60;;
12762;SDS011;6445;52.490;13.378;2023-06-26T12:50:42;6.03;;;5.53;;
12762;SDS011;6445;52.490;13.378;2023-06-26T12:53:08;7.95;;;6.47;;
12762;SDS011;6445;52.490;13.378;2023-06-26T12:55:33;7.53;;;6.73;;
12762;SDS011;6445;52.490;13.378;2023-06-26T12:58:01;7.95;;;7.05;;
12762;SDS011;6445;52.490;13.378;2023-06-26T13:00:26;6.97;;;5.90;;
12762;SDS011;6445;52.490;13.378;2023-06-26T13:02:51;6.77;;;5.97;;
12762;SDS011;6445;52.490;13.378;2023-06-26T13:05:16;6.83;;;6.13;;
12762;SDS011;6445;52.490;13.378;2023-06-26T13:07:42;6.63;;;6.00;;
12762;SDS011;6445;52.490;13.378;2023-06-26T13:10:07;11.80;;;5.93;;
12762;SDS011;6445;52.490;13.378;2023-06-26T13:12:33;6.97;;;5.72;;
12762;SDS011;6445;52.490;13.378;2023-06-26T13:14:58;9.17;;;6.27;;
12762;SDS011;6445;52.490;13.378;2023-06-26T13:17:23;7.05;;;5.97;;
12762;SDS011;6445;52.490;13.378;2023-06-26T13:19:48;6.47;;;5.88;;
12762;SDS011;6445;52.490;13.378;2023-06-26T13:22:14;6.65;;;6.05;;
12762;SDS011;6445;52.490;13.378;2023-06-26T13:24:39;7.50;;;6.00;;
12762;SDS011;6445;52.490;13.378;2023-06-26T13:27:04;8.63;;;5.97;;
12762;SDS011;6445;52.490;13.378;2023-06-26T13:29:31;7.15;;;6.43;;
12762;SDS011;6445;52.490;13.378;2023-06-26T13:31:56;6.50;;;5.78;;
12762;SDS011;6445;52.490;13.378;2023-06-26T13:34:22;6.43;;;5.82;;
12762;SDS011;6445;52.490;13.378;2023-06-26T13:36:48;8.85;;;6.13;;
12762;SDS011;6445;52.490;13.378;2023-06-26T13:39:13;8.32;;;6.35;;
12762;SDS011;6445;52.490;13.378;2023-06-26T13:41:38;6.50;;;5.90;;
12762;SDS011;6445;52.490;13.378;2023-06-26T13:44:04;7.15;;;5.68;;
12762;SDS011;6445;52.490;13.378;2023-06-26T13:46:29;7.30;;;6.60;;
12762;SDS011;6445;52.490;13.378;2023-06-26T13:48:54;8.23;;;6.28;;
12762;SDS011;6445;52.490;13.378;2023-06-26T13:51:19;6.67;;;6.07;;
12762;SDS011;6445;52.490;13.378;2023-06-26T13:53:45;8.65;;;6.40;;
12762;SDS011;6445;52.490;13.378;2023-06-26T13:56:10;7.00;;;6.30;;
12762;SDS011;6445;52.490;13.378;2023-06-26T13:58:35;7.15;;;6.20;;
12762;SDS011;6445;52.490;13.378;2023-06-26T14:01:01;6.88;;;6.18;;
12762;SDS011;6445;52.490;13.378;2023-06-26T14:03:27;6.43;;;5.82;;
12762;SDS011;6445;52.490;13.378;2023-06-26T14:05:53;9.07;;;8.13;;
12762;SDS011;6445;52.490;13.378;2023-06-26T14:08:18;7.05;;;6.32;;
12762;SDS011;6445;52.490;13.378;2023-06-26T14:10:44;6.53;;;5.93;;
12762;SDS011;6445;52.490;13.378;2023-06-26T14:13:09;7.28;;;6.38;;
12762;SDS011;6445;52.490;13.378;2023-06-26T14:15:36;7.35;;;6.65;;
12762;SDS011;6445;52.490;13.378;2023-06-26T14:18:04;7.13;;;5.80;;
12762;SDS011;6445;52.490;13.378;2023-06-26T14:20:29;10.18;;;5.93;;
12762;SDS011;6445;52.490;13.378;2023-06-26T14:22:57;13.15;;;5.50;;
12762;SDS011;6445;52.490;13.378;2023-06-26T14:25:22;8.70;;;4.10;;
12762;SDS011;6445;52.490;13.378;2023-06-26T14:27:48;16.58;;;5.45;;
12762;SDS011;6445;52.490;13.378;2023-06-26T14:30:13;11.55;;;5.97;;
12762;SDS011;6445;52.490;13.378;2023-06-26T14:32:38;9.15;;;4.40;;
12762;SDS011;6445;52.490;13.378;2023-06-26T14:35:03;13.63;;;6.00;;
12762;SDS011;6445;52.490;13.378;2023-06-26T14:37:29;12.77;;;5.40;;
12762;SDS011;6445;52.490;13.378;2023-06-26T14:39:55;9.20;;;5.85;;